sensor_id;sensor_type;location;lat;lon;timestamp;P1;durP1;ratioP1;P2;durP2;ratioP2
54430;SDS011;40342;52.998;5.862;2022-12-18T00:02:04;106.35;;;52.80;;
54430;SDS011;40342;52.998;5.862;2022-12-18T00:04:30;99.43;;;51.25;;
54430;SDS011;40342;52.998;5.862;2022-12-18T00:06:55;101.35;;;51.83;;
54430;SDS011;40342;52.998;5.862;2022-12-18T00:09:21;93.57;;;48.05;;
54430;SDS011;40342;52.998;5.862;2022-12-18T00:11:47;92.15;;;47.72;;
54430;SDS011;40342;52.998;5.862;2022-12-18T00:14:13;93.25;;;48.83;;
54430;SDS011;40342;52.998;5.862;2022-12-18T00:16:39;92.95;;;47.65;;
54430;SDS011;40342;52.998;5.862;2022-12-18T00:19:05;89.43;;;48.60;;
54430;SDS011;40342;52.998;5.862;2022-12-18T00:21:32;90.38;;;48.65;;
54430;SDS011;40342;52.998;5.862;2022-12-18T00:23:59;94.05;;;49.65;;
54430;SDS011;40342;52.998;5.862;2022-12-18T00:26:25;94.05;;;48.55;;
54430;SDS011;40342;52.998;5.862;2022-12-18T00:28:53;94.72;;;48.58;;
54430;SDS011;40342;52.998;5.862;2022-12-18T00:31:21;96.68;;;49.28;;
54430;SDS011;40342;52.998;5.862;2022-12-18T00:33:48;93.88;;;46.63;;
54430;SDS011;40342;52.998;5.862;2022-12-18T00:36:18;95.72;;;48.30;;
54430;SDS011;40342;52.998;5.862;2022-12-18T00:38:45;98.18;;;47.60;;
54430;SDS011;40342;52.998;5.862;2022-12-18T00:41:12;90.07;;;45.38;;
54430;SDS011;40342;52.998;5.862;2022-12-18T00:43:59;88.03;;;44.58;;
54430;SDS011;40342;52.998;5.862;2022-12-18T00:46:25;88.32;;;45.00;;
54430;SDS011;40342;52.998;5.862;2022-12-18T00:48:50;96.72;;;46.35;;
54430;SDS011;40342;52.998;5.862;2022-12-18T00:51:16;86.82;;;44.28;;
54430;SDS011;40342;52.998;5.862;2022-12-18T00:53:41;96.22;;;46.03;;
54430;SDS011;40342;52.998;5.862;2022-12-18T00:56:07;83.88;;;42.42;;
54430;SDS011;40342;52.998;5.862;2022-12-18T00:58:36;91.18;;;44.30;;
54430;SDS011;40342;52.998;5.862;2022-12-18T01:01:03;90.85;;;45.42;;
54430;SDS011;40342;52.998;5.862;2022-12-18T01:03:29;86.80;;;44.05;;
54430;SDS011;40342;52.998;5.862;2022-12-18T01:05:55;93.55;;;46.25;;
54430;SDS011;40342;52.998;5.862;2022-12-18T01:08:21;91.47;;;45.42;;
54430;SDS011;40342;52.998;5.862;2022-12-18T01:10:46;92.25;;;45.10;;
54430;SDS011;40342;52.998;5.862;2022-12-18T01:13:12;92.38;;;46.33;;
54430;SDS011;40342;52.998;5.862;2022-12-18T01:15:38;94.50;;;45.90;;
54430;SDS011;40342;52.998;5.862;2022-12-18T01:18:06;98.88;;;45.40;;
54430;SDS011;40342;52.998;5.862;2022-12-18T01:20:32;90.80;;;44.60;;
54430;SDS011;40342;52.998;5.862;2022-12-18T01:22:58;89.60;;;44.05;;
54430;SDS011;40342;52.998;5.862;2022-12-18T01:25:23;88.28;;;44.40;;
54430;SDS011;40342;52.998;5.862;2022-12-18T01:27:49;94.55;;;45.20;;
54430;SDS011;40342;52.998;5.862;2022-12-18T01:30:14;100.25;;;44.95;;
54430;SDS011;40342;52.998;5.862;2022-12-18T01:32:40;90.03;;;43.42;;
54430;SDS011;40342;52.998;5.862;2022-12-18T01:35:06;94.03;;;44.92;;
54430;SDS011;40342;52.998;5.862;2022-12-18T01:37:32;95.53;;;44.50;;
54430;SDS011;40342;52.998;5.862;2022-12-18T01:39:58;86.95;;;42.10;;
54430;SDS011;40342;52.998;5.862;2022-12-18T01:42:23;91.22;;;43.05;;
54430;SDS011;40342;52.998;5.862;2022-12-18T01:44:54;93.25;;;41.97;;
54430;SDS011;40342;52.998;5.862;2022-12-18T01:47:33;82.05;;;41.42;;
54430;SDS011;40342;52.998;5.862;2022-12-18T01:52:46;91.00;;;43.55;;
54430;SDS011;40342;52.998;5.862;2022-12-18T01:55:36;85.47;;;42.58;;
54430;SDS011;40342;52.998;5.862;2022-12-18T01:58:13;99.32;;;44.83;;
54430;SDS011;40342;52.998;5.862;2022-12-18T02:00:39;93.10;;;44.00;;
54430;SDS011;40342;52.998;5.862;2022-12-18T02:03:05;95.35;;;45.58;;
54430;SDS011;40342;52.998;5.862;2022-12-18T02:08:12;89.32;;;42.17;;
54430;SDS011;40342;52.998;5.862;2022-12-18T02:11:24;97.93;;;43.13;;
54430;SDS011;40342;52.998;5.862;2022-12-18T02:14:04;88.90;;;44.13;;
54430;SDS011;40342;52.998;5.862;2022-12-18T02:27:54;91.85;;;42.33;;
54430;SDS011;40342;52.998;5.862;2022-12-18T02:30:24;91.93;;;42.40;;
54430;SDS011;40342;52.998;5.862;2022-12-18T02:32:51;90.28;;;43.20;;
54430;SDS011;40342;52.998;5.862;2022-12-18T02:35:29;90.10;;;41.50;;
54430;SDS011;40342;52.998;5.862;2022-12-18T02:37:55;92.95;;;43.97;;
54430;SDS011;40342;52.998;5.862;2022-12-18T02:40:23;93.18;;;42.67;;
54430;SDS011;40342;52.998;5.862;2022-12-18T02:42:51;94.72;;;42.78;;
54430;SDS011;40342;52.998;5.862;2022-12-18T02:45:17;89.70;;;42.88;;
54430;SDS011;40342;52.998;5.862;2022-12-18T02:47:43;90.28;;;42.20;;
54430;SDS011;40342;52.998;5.862;2022-12-18T02:50:31;88.72;;;42.00;;
54430;SDS011;40342;52.998;5.862;2022-12-18T02:53:17;85.30;;;39.15;;
54430;SDS011;40342;52.998;5.862;2022-12-18T02:58:38;97.75;;;44.13;;
54430;SDS011;40342;52.998;5.862;2022-12-18T03:01:23;90.75;;;42.03;;
54430;SDS011;40342;52.998;5.862;2022-12-18T03:06:44;96.93;;;44.67;;
54430;SDS011;40342;52.998;5.862;2022-12-18T03:09:14;92.63;;;44.42;;
54430;SDS011;40342;52.998;5.862;2022-12-18T03:11:58;91.53;;;43.30;;
54430;SDS011;40342;52.998;5.862;2022-12-18T03:14:49;97.25;;;44.95;;
54430;SDS011;40342;52.998;5.862;2022-12-18T03:17:17;96.78;;;44.70;;
54430;SDS011;40342;52.998;5.862;2022-12-18T03:19:48;96.43;;;44.50;;
54430;SDS011;40342;52.998;5.862;2022-12-18T03:22:16;93.30;;;45.30;;
54430;SDS011;40342;52.998;5.862;2022-12-18T03:24:42;94.70;;;44.38;;
54430;SDS011;40342;52.998;5.862;2022-12-18T03:27:11;95.28;;;45.22;;
54430;SDS011;40342;52.998;5.862;2022-12-18T03:29:44;95.88;;;47.00;;
54430;SDS011;40342;52.998;5.862;2022-12-18T03:34:46;98.25;;;43.75;;
54430;SDS011;40342;52.998;5.862;2022-12-18T03:37:15;94.10;;;44.25;;
54430;SDS011;40342;52.998;5.862;2022-12-18T03:39:41;99.72;;;47.47;;
54430;SDS011;40342;52.998;5.862;2022-12-18T03:42:08;96.50;;;44.72;;
54430;SDS011;40342;52.998;5.862;2022-12-18T03:44:44;83.53;;;42.30;;
54430;SDS011;40342;52.998;5.862;2022-12-18T03:47:14;96.72;;;43.85;;
54430;SDS011;40342;52.998;5.862;2022-12-18T03:49:46;89.60;;;41.90;;
54430;SDS011;40342;52.998;5.862;2022-12-18T03:52:20;91.55;;;43.65;;
54430;SDS011;40342;52.998;5.862;2022-12-18T03:54:55;85.40;;;41.58;;
54430;SDS011;40342;52.998;5.862;2022-12-18T03:57:24;87.22;;;42.53;;
54430;SDS011;40342;52.998;5.862;2022-12-18T03:59:54;94.60;;;43.03;;
54430;SDS011;40342;52.998;5.862;2022-12-18T04:02:30;80.95;;;40.63;;
54430;SDS011;40342;52.998;5.862;2022-12-18T04:04:59;87.40;;;41.17;;
54430;SDS011;40342;52.998;5.862;2022-12-18T04:07:28;81.78;;;39.40;;
54430;SDS011;40342;52.998;5.862;2022-12-18T04:09:54;83.55;;;42.03;;
54430;SDS011;40342;52.998;5.862;2022-12-18T04:12:25;79.05;;;40.65;;
54430;SDS011;40342;52.998;5.862;2022-12-18T04:14:53;85.18;;;40.38;;
54430;SDS011;40342;52.998;5.862;2022-12-18T04:17:19;81.22;;;39.85;;
54430;SDS011;40342;52.998;5.862;2022-12-18T04:19:44;76.90;;;38.60;;
54430;SDS011;40342;52.998;5.862;2022-12-18T04:22:10;80.60;;;39.17;;
54430;SDS011;40342;52.998;5.862;2022-12-18T04:24:36;79.20;;;39.30;;
54430;SDS011;40342;52.998;5.862;2022-12-18T04:27:01;76.38;;;38.25;;
54430;SDS011;40342;52.998;5.862;2022-12-18T04:29:27;77.75;;;37.38;;
54430;SDS011;40342;52.998;5.862;2022-12-18T04:31:53;75.97;;;38.70;;
54430;SDS011;40342;52.998;5.862;2022-12-18T04:34:19;78.53;;;39.20;;
54430;SDS011;40342;52.998;5.862;2022-12-18T04:36:45;77.18;;;39.58;;
54430;SDS011;40342;52.998;5.862;2022-12-18T04:39:10;76.75;;;38.90;;
54430;SDS011;40342;52.998;5.862;2022-12-18T04:41:36;76.05;;;38.90;;
54430;SDS011;40342;52.998;5.862;2022-12-18T04:44:02;76.00;;;37.53;;
54430;SDS011;40342;52.998;5.862;2022-12-18T04:46:28;76.95;;;38.03;;
54430;SDS011;40342;52.998;5.862;2022-12-18T04:48:53;68.72;;;36.67;;
54430;SDS011;40342;52.998;5.862;2022-12-18T04:51:19;74.13;;;37.65;;
54430;SDS011;40342;52.998;5.862;2022-12-18T04:53:44;71.72;;;37.50;;
54430;SDS011;40342;52.998;5.862;2022-12-18T04:56:12;68.85;;;35.75;;
54430;SDS011;40342;52.998;5.862;2022-12-18T04:58:39;66.70;;;35.30;;
54430;SDS011;40342;52.998;5.862;2022-12-18T05:01:06;66.05;;;35.95;;
54430;SDS011;40342;52.998;5.862;2022-12-18T05:03:32;61.25;;;35.25;;
54430;SDS011;40342;52.998;5.862;2022-12-18T05:05:58;63.08;;;33.42;;
54430;SDS011;40342;52.998;5.862;2022-12-18T05:08:24;62.50;;;33.50;;
54430;SDS011;40342;52.998;5.862;2022-12-18T05:10:57;57.75;;;33.22;;
54430;SDS011;40342;52.998;5.862;2022-12-18T05:13:27;58.67;;;32.20;;
54430;SDS011;40342;52.998;5.862;2022-12-18T05:15:53;58.03;;;33.33;;
54430;SDS011;40342;52.998;5.862;2022-12-18T05:18:19;61.47;;;31.83;;
54430;SDS011;40342;52.998;5.862;2022-12-18T05:20:44;55.55;;;31.33;;
54430;SDS011;40342;52.998;5.862;2022-12-18T05:23:10;63.10;;;31.80;;
54430;SDS011;40342;52.998;5.862;2022-12-18T05:25:37;59.53;;;31.65;;
54430;SDS011;40342;52.998;5.862;2022-12-18T05:28:02;54.63;;;30.92;;
54430;SDS011;40342;52.998;5.862;2022-12-18T05:30:28;55.40;;;30.38;;
54430;SDS011;40342;52.998;5.862;2022-12-18T05:32:54;50.42;;;29.08;;
54430;SDS011;40342;52.998;5.862;2022-12-18T05:35:19;58.95;;;30.23;;
54430;SDS011;40342;52.998;5.862;2022-12-18T05:37:45;53.90;;;30.48;;
54430;SDS011;40342;52.998;5.862;2022-12-18T05:40:11;55.08;;;30.10;;
54430;SDS011;40342;52.998;5.862;2022-12-18T05:42:37;58.55;;;31.95;;
54430;SDS011;40342;52.998;5.862;2022-12-18T05:45:03;62.60;;;31.10;;
54430;SDS011;40342;52.998;5.862;2022-12-18T05:47:29;55.85;;;29.90;;
54430;SDS011;40342;52.998;5.862;2022-12-18T05:49:54;53.13;;;30.05;;
54430;SDS011;40342;52.998;5.862;2022-12-18T05:52:20;56.83;;;29.10;;
54430;SDS011;40342;52.998;5.862;2022-12-18T05:54:46;55.95;;;28.35;;
54430;SDS011;40342;52.998;5.862;2022-12-18T05:57:11;47.30;;;27.20;;
54430;SDS011;40342;52.998;5.862;2022-12-18T05:59:37;47.92;;;26.20;;
54430;SDS011;40342;52.998;5.862;2022-12-18T06:02:02;56.63;;;28.75;;
54430;SDS011;40342;52.998;5.862;2022-12-18T06:04:28;49.42;;;27.77;;
54430;SDS011;40342;52.998;5.862;2022-12-18T06:06:54;46.67;;;27.38;;
54430;SDS011;40342;52.998;5.862;2022-12-18T06:09:19;55.30;;;27.25;;
54430;SDS011;40342;52.998;5.862;2022-12-18T06:11:45;47.60;;;27.08;;
54430;SDS011;40342;52.998;5.862;2022-12-18T06:14:10;56.35;;;28.30;;
54430;SDS011;40342;52.998;5.862;2022-12-18T06:16:36;48.55;;;25.88;;
54430;SDS011;40342;52.998;5.862;2022-12-18T06:19:03;44.33;;;25.83;;
54430;SDS011;40342;52.998;5.862;2022-12-18T06:21:30;50.45;;;25.85;;
54430;SDS011;40342;52.998;5.862;2022-12-18T06:23:56;50.72;;;26.27;;
54430;SDS011;40342;52.998;5.862;2022-12-18T06:26:22;48.88;;;27.00;;
54430;SDS011;40342;52.998;5.862;2022-12-18T06:28:48;47.53;;;26.25;;
54430;SDS011;40342;52.998;5.862;2022-12-18T06:31:14;44.75;;;24.63;;
54430;SDS011;40342;52.998;5.862;2022-12-18T06:33:40;43.80;;;23.52;;
54430;SDS011;40342;52.998;5.862;2022-12-18T06:36:07;45.47;;;24.85;;
54430;SDS011;40342;52.998;5.862;2022-12-18T06:38:36;45.25;;;24.05;;
54430;SDS011;40342;52.998;5.862;2022-12-18T06:41:13;43.65;;;24.38;;
54430;SDS011;40342;52.998;5.862;2022-12-18T06:43:41;47.63;;;25.02;;
54430;SDS011;40342;52.998;5.862;2022-12-18T06:46:07;41.67;;;23.65;;
54430;SDS011;40342;52.998;5.862;2022-12-18T06:48:33;41.72;;;23.15;;
54430;SDS011;40342;52.998;5.862;2022-12-18T06:50:59;40.28;;;22.98;;
54430;SDS011;40342;52.998;5.862;2022-12-18T06:53:25;38.30;;;22.02;;
54430;SDS011;40342;52.998;5.862;2022-12-18T06:55:51;44.78;;;23.60;;
54430;SDS011;40342;52.998;5.862;2022-12-18T06:58:17;39.05;;;22.10;;
54430;SDS011;40342;52.998;5.862;2022-12-18T07:00:43;38.45;;;20.55;;
54430;SDS011;40342;52.998;5.862;2022-12-18T07:03:09;43.38;;;24.20;;
54430;SDS011;40342;52.998;5.862;2022-12-18T07:05:39;46.35;;;25.50;;
54430;SDS011;40342;52.998;5.862;2022-12-18T07:08:05;43.30;;;24.33;;
54430;SDS011;40342;52.998;5.862;2022-12-18T07:10:31;46.38;;;25.10;;
54430;SDS011;40342;52.998;5.862;2022-12-18T07:12:57;45.40;;;24.10;;
54430;SDS011;40342;52.998;5.862;2022-12-18T07:15:22;39.30;;;23.50;;
54430;SDS011;40342;52.998;5.862;2022-12-18T07:17:48;37.30;;;23.52;;
54430;SDS011;40342;52.998;5.862;2022-12-18T07:20:13;43.08;;;28.60;;
54430;SDS011;40342;52.998;5.862;2022-12-18T07:22:39;37.40;;;23.60;;
54430;SDS011;40342;52.998;5.862;2022-12-18T07:25:05;37.20;;;20.52;;
54430;SDS011;40342;52.998;5.862;2022-12-18T07:27:31;35.83;;;20.77;;
54430;SDS011;40342;52.998;5.862;2022-12-18T07:29:57;37.05;;;21.02;;
54430;SDS011;40342;52.998;5.862;2022-12-18T07:32:22;37.47;;;21.73;;
54430;SDS011;40342;52.998;5.862;2022-12-18T07:34:48;39.08;;;21.05;;
54430;SDS011;40342;52.998;5.862;2022-12-18T07:37:13;43.67;;;24.13;;
54430;SDS011;40342;52.998;5.862;2022-12-18T07:39:39;39.97;;;25.73;;
54430;SDS011;40342;52.998;5.862;2022-12-18T07:42:07;44.03;;;25.85;;
54430;SDS011;40342;52.998;5.862;2022-12-18T07:44:51;57.22;;;33.15;;
54430;SDS011;40342;52.998;5.862;2022-12-18T07:47:17;52.35;;;30.30;;
54430;SDS011;40342;52.998;5.862;2022-12-18T07:49:43;64.13;;;38.05;;
54430;SDS011;40342;52.998;5.862;2022-12-18T07:52:08;68.18;;;41.30;;
54430;SDS011;40342;52.998;5.862;2022-12-18T07:54:34;45.25;;;25.90;;
54430;SDS011;40342;52.998;5.862;2022-12-18T07:57:00;51.08;;;27.17;;
54430;SDS011;40342;52.998;5.862;2022-12-18T07:59:25;49.13;;;29.90;;
54430;SDS011;40342;52.998;5.862;2022-12-18T08:01:51;45.85;;;29.27;;
54430;SDS011;40342;52.998;5.862;2022-12-18T08:04:17;42.58;;;25.45;;
54430;SDS011;40342;52.998;5.862;2022-12-18T08:06:42;41.90;;;25.17;;
54430;SDS011;40342;52.998;5.862;2022-12-18T08:09:09;34.90;;;20.58;;
54430;SDS011;40342;52.998;5.862;2022-12-18T08:11:35;44.08;;;26.00;;
54430;SDS011;40342;52.998;5.862;2022-12-18T08:14:00;40.25;;;23.85;;
54430;SDS011;40342;52.998;5.862;2022-12-18T08:16:26;37.15;;;22.73;;
54430;SDS011;40342;52.998;5.862;2022-12-18T08:18:52;39.10;;;26.05;;
54430;SDS011;40342;52.998;5.862;2022-12-18T08:21:19;29.63;;;19.63;;
54430;SDS011;40342;52.998;5.862;2022-12-18T08:23:48;27.60;;;17.85;;
54430;SDS011;40342;52.998;5.862;2022-12-18T08:26:14;28.17;;;17.20;;
54430;SDS011;40342;52.998;5.862;2022-12-18T08:28:40;33.22;;;18.85;;
54430;SDS011;40342;52.998;5.862;2022-12-18T08:31:06;30.90;;;18.13;;
54430;SDS011;40342;52.998;5.862;2022-12-18T08:33:33;27.95;;;16.70;;
54430;SDS011;40342;52.998;5.862;2022-12-18T08:35:59;27.15;;;16.90;;
54430;SDS011;40342;52.998;5.862;2022-12-18T08:38:25;29.70;;;18.30;;
54430;SDS011;40342;52.998;5.862;2022-12-18T08:41:00;29.02;;;17.75;;
54430;SDS011;40342;52.998;5.862;2022-12-18T08:43:28;38.15;;;19.25;;
54430;SDS011;40342;52.998;5.862;2022-12-18T08:46:16;27.13;;;18.15;;
54430;SDS011;40342;52.998;5.862;2022-12-18T08:48:42;28.35;;;16.98;;
54430;SDS011;40342;52.998;5.862;2022-12-18T08:51:08;30.02;;;16.98;;
54430;SDS011;40342;52.998;5.862;2022-12-18T08:53:34;28.35;;;17.83;;
54430;SDS011;40342;52.998;5.862;2022-12-18T08:56:00;27.10;;;17.65;;
54430;SDS011;40342;52.998;5.862;2022-12-18T08:58:26;30.13;;;16.95;;
54430;SDS011;40342;52.998;5.862;2022-12-18T09:00:52;24.00;;;16.42;;
54430;SDS011;40342;52.998;5.862;2022-12-18T09:03:18;25.73;;;15.18;;
54430;SDS011;40342;52.998;5.862;2022-12-18T09:05:47;29.48;;;16.70;;
54430;SDS011;40342;52.998;5.862;2022-12-18T09:08:13;27.70;;;16.63;;
54430;SDS011;40342;52.998;5.862;2022-12-18T09:10:43;27.55;;;16.23;;
54430;SDS011;40342;52.998;5.862;2022-12-18T09:13:13;28.13;;;16.63;;
54430;SDS011;40342;52.998;5.862;2022-12-18T09:15:50;30.10;;;17.40;;
54430;SDS011;40342;52.998;5.862;2022-12-18T09:18:18;23.17;;;15.73;;
54430;SDS011;40342;52.998;5.862;2022-12-18T09:20:45;29.70;;;16.17;;
54430;SDS011;40342;52.998;5.862;2022-12-18T09:23:10;26.75;;;15.95;;
54430;SDS011;40342;52.998;5.862;2022-12-18T09:25:36;25.38;;;14.88;;
54430;SDS011;40342;52.998;5.862;2022-12-18T09:28:03;23.20;;;15.57;;
54430;SDS011;40342;52.998;5.862;2022-12-18T09:30:31;23.58;;;15.30;;
54430;SDS011;40342;52.998;5.862;2022-12-18T09:32:58;27.15;;;14.73;;
54430;SDS011;40342;52.998;5.862;2022-12-18T09:35:24;22.30;;;14.27;;
54430;SDS011;40342;52.998;5.862;2022-12-18T09:37:50;23.92;;;14.55;;
54430;SDS011;40342;52.998;5.862;2022-12-18T09:40:16;20.90;;;13.15;;
54430;SDS011;40342;52.998;5.862;2022-12-18T09:42:45;19.75;;;14.27;;
54430;SDS011;40342;52.998;5.862;2022-12-18T09:45:17;20.40;;;13.93;;
54430;SDS011;40342;52.998;5.862;2022-12-18T09:47:43;22.85;;;14.90;;
54430;SDS011;40342;52.998;5.862;2022-12-18T09:50:22;23.77;;;14.68;;
54430;SDS011;40342;52.998;5.862;2022-12-18T09:52:56;20.13;;;14.20;;
54430;SDS011;40342;52.998;5.862;2022-12-18T09:58:00;20.85;;;14.77;;
54430;SDS011;40342;52.998;5.862;2022-12-18T10:00:35;17.10;;;12.38;;
54430;SDS011;40342;52.998;5.862;2022-12-18T10:03:03;19.38;;;12.50;;
54430;SDS011;40342;52.998;5.862;2022-12-18T10:17:13;19.00;;;10.83;;
54430;SDS011;40342;52.998;5.862;2022-12-18T10:19:58;14.55;;;9.85;;
54430;SDS011;40342;52.998;5.862;2022-12-18T10:25:01;15.95;;;10.10;;
54430;SDS011;40342;52.998;5.862;2022-12-18T10:27:30;13.45;;;10.60;;
54430;SDS011;40342;52.998;5.862;2022-12-18T10:29:56;14.52;;;9.93;;
54430;SDS011;40342;52.998;5.862;2022-12-18T10:32:27;16.63;;;11.20;;
54430;SDS011;40342;52.998;5.862;2022-12-18T10:34:55;18.50;;;11.45;;
54430;SDS011;40342;52.998;5.862;2022-12-18T10:37:24;17.55;;;11.40;;
54430;SDS011;40342;52.998;5.862;2022-12-18T10:40:13;14.07;;;10.77;;
54430;SDS011;40342;52.998;5.862;2022-12-18T10:42:40;14.73;;;10.95;;
54430;SDS011;40342;52.998;5.862;2022-12-18T10:45:14;15.88;;;10.30;;
54430;SDS011;40342;52.998;5.862;2022-12-18T10:47:46;21.80;;;14.18;;
54430;SDS011;40342;52.998;5.862;2022-12-18T10:50:22;13.68;;;10.95;;
54430;SDS011;40342;52.998;5.862;2022-12-18T10:52:58;12.82;;;9.40;;
54430;SDS011;40342;52.998;5.862;2022-12-18T10:55:27;13.60;;;10.48;;
54430;SDS011;40342;52.998;5.862;2022-12-18T10:58:13;12.60;;;9.93;;
54430;SDS011;40342;52.998;5.862;2022-12-18T11:00:45;13.27;;;10.02;;
54430;SDS011;40342;52.998;5.862;2022-12-18T11:03:30;11.65;;;9.18;;
54430;SDS011;40342;52.998;5.862;2022-12-18T11:06:08;13.63;;;10.10;;
54430;SDS011;40342;52.998;5.862;2022-12-18T11:08:36;12.77;;;9.93;;
54430;SDS011;40342;52.998;5.862;2022-12-18T11:11:02;14.32;;;10.32;;
54430;SDS011;40342;52.998;5.862;2022-12-18T11:13:32;33.22;;;24.02;;
54430;SDS011;40342;52.998;5.862;2022-12-18T11:15:58;33.03;;;22.50;;
54430;SDS011;40342;52.998;5.862;2022-12-18T11:18:30;16.15;;;12.85;;
54430;SDS011;40342;52.998;5.862;2022-12-18T11:21:08;10.82;;;9.68;;
54430;SDS011;40342;52.998;5.862;2022-12-18T11:23:35;11.70;;;8.80;;
54430;SDS011;40342;52.998;5.862;2022-12-18T11:26:15;12.40;;;9.90;;
54430;SDS011;40342;52.998;5.862;2022-12-18T11:28:45;10.98;;;9.27;;
54430;SDS011;40342;52.998;5.862;2022-12-18T11:33:55;16.27;;;9.70;;
54430;SDS011;40342;52.998;5.862;2022-12-18T11:36:21;11.48;;;9.02;;
54430;SDS011;40342;52.998;5.862;2022-12-18T11:38:47;10.40;;;8.43;;
54430;SDS011;40342;52.998;5.862;2022-12-18T11:41:19;10.88;;;8.25;;
54430;SDS011;40342;52.998;5.862;2022-12-18T11:44:19;11.68;;;9.02;;
54430;SDS011;40342;52.998;5.862;2022-12-18T11:47:01;10.20;;;8.50;;
54430;SDS011;40342;52.998;5.862;2022-12-18T11:49:34;10.37;;;8.27;;
54430;SDS011;40342;52.998;5.862;2022-12-18T11:54:40;10.65;;;8.93;;
54430;SDS011;40342;52.998;5.862;2022-12-18T11:57:09;10.25;;;8.52;;
54430;SDS011;40342;52.998;5.862;2022-12-18T12:02:46;9.73;;;7.32;;
54430;SDS011;40342;52.998;5.862;2022-12-18T12:14:09;8.57;;;6.85;;
54430;SDS011;40342;52.998;5.862;2022-12-18T12:17:10;8.07;;;6.93;;
54430;SDS011;40342;52.998;5.862;2022-12-18T12:20:50;10.63;;;7.05;;
54430;SDS011;40342;52.998;5.862;2022-12-18T12:23:05;8.48;;;7.55;;
54430;SDS011;40342;52.998;5.862;2022-12-18T12:28:28;16.38;;;11.35;;
54430;SDS011;40342;52.998;5.862;2022-12-18T12:34:10;56.58;;;23.08;;
54430;SDS011;40342;52.998;5.862;2022-12-18T12:39:21;92.28;;;27.55;;
54430;SDS011;40342;52.998;5.862;2022-12-18T12:41:54;73.35;;;33.97;;
54430;SDS011;40342;52.998;5.862;2022-12-18T12:44:42;60.08;;;31.95;;
54430;SDS011;40342;52.998;5.862;2022-12-18T12:50:12;38.92;;;17.88;;
54430;SDS011;40342;52.998;5.862;2022-12-18T12:52:50;19.00;;;10.30;;
54430;SDS011;40342;52.998;5.862;2022-12-18T12:55:22;17.48;;;9.10;;
54430;SDS011;40342;52.998;5.862;2022-12-18T13:00:30;28.30;;;14.40;;
54430;SDS011;40342;52.998;5.862;2022-12-18T13:03:08;44.55;;;28.98;;
54430;SDS011;40342;52.998;5.862;2022-12-18T13:05:49;44.72;;;30.05;;
54430;SDS011;40342;52.998;5.862;2022-12-18T13:08:29;19.33;;;14.18;;
54430;SDS011;40342;52.998;5.862;2022-12-18T13:10:57;72.32;;;43.30;;
54430;SDS011;40342;52.998;5.862;2022-12-18T13:13:52;114.00;;;66.95;;
54430;SDS011;40342;52.998;5.862;2022-12-18T13:16:20;92.20;;;52.08;;
54430;SDS011;40342;52.998;5.862;2022-12-18T13:18:50;96.18;;;57.22;;
54430;SDS011;40342;52.998;5.862;2022-12-18T13:21:29;36.85;;;28.42;;
54430;SDS011;40342;52.998;5.862;2022-12-18T13:24:08;10.52;;;9.00;;
54430;SDS011;40342;52.998;5.862;2022-12-18T13:26:44;9.88;;;7.38;;
54430;SDS011;40342;52.998;5.862;2022-12-18T13:29:10;10.40;;;7.65;;
54430;SDS011;40342;52.998;5.862;2022-12-18T13:34:16;10.27;;;7.88;;
54430;SDS011;40342;52.998;5.862;2022-12-18T13:36:43;9.52;;;6.60;;
54430;SDS011;40342;52.998;5.862;2022-12-18T13:41:38;30.55;;;19.13;;
54430;SDS011;40342;52.998;5.862;2022-12-18T13:44:11;33.33;;;20.67;;
54430;SDS011;40342;52.998;5.862;2022-12-18T13:46:52;41.65;;;25.13;;
54430;SDS011;40342;52.998;5.862;2022-12-18T13:52:03;23.52;;;16.17;;
54430;SDS011;40342;52.998;5.862;2022-12-18T13:54:47;16.75;;;10.10;;
54430;SDS011;40342;52.998;5.862;2022-12-18T13:57:29;10.95;;;8.65;;
54430;SDS011;40342;52.998;5.862;2022-12-18T14:00:14;12.20;;;9.48;;
54430;SDS011;40342;52.998;5.862;2022-12-18T14:02:44;15.45;;;10.38;;
54430;SDS011;40342;52.998;5.862;2022-12-18T14:07:52;50.60;;;35.03;;
54430;SDS011;40342;52.998;5.862;2022-12-18T14:10:18;26.00;;;19.35;;
54430;SDS011;40342;52.998;5.862;2022-12-18T14:12:48;34.45;;;26.58;;
54430;SDS011;40342;52.998;5.862;2022-12-18T14:15:38;27.30;;;20.48;;
54430;SDS011;40342;52.998;5.862;2022-12-18T14:20:52;22.15;;;17.67;;
54430;SDS011;40342;52.998;5.862;2022-12-18T14:23:38;18.58;;;14.82;;
54430;SDS011;40342;52.998;5.862;2022-12-18T14:28:53;12.30;;;10.88;;
54430;SDS011;40342;52.998;5.862;2022-12-18T14:31:27;13.15;;;10.85;;
54430;SDS011;40342;52.998;5.862;2022-12-18T14:33:54;11.50;;;9.00;;
54430;SDS011;40342;52.998;5.862;2022-12-18T14:36:24;9.48;;;7.28;;
54430;SDS011;40342;52.998;5.862;2022-12-18T14:38:54;9.60;;;6.97;;
54430;SDS011;40342;52.998;5.862;2022-12-18T14:41:21;15.85;;;11.27;;
54430;SDS011;40342;52.998;5.862;2022-12-18T14:43:49;18.67;;;14.00;;
54430;SDS011;40342;52.998;5.862;2022-12-18T14:49:00;29.92;;;19.20;;
54430;SDS011;40342;52.998;5.862;2022-12-18T14:51:42;19.52;;;14.38;;
54430;SDS011;40342;52.998;5.862;2022-12-18T14:54:17;33.20;;;21.52;;
54430;SDS011;40342;52.998;5.862;2022-12-18T14:56:51;24.48;;;18.83;;
54430;SDS011;40342;52.998;5.862;2022-12-18T14:59:24;24.63;;;15.15;;
54430;SDS011;40342;52.998;5.862;2022-12-18T15:01:56;9.70;;;7.93;;
54430;SDS011;40342;52.998;5.862;2022-12-18T15:07:13;8.80;;;7.13;;
54430;SDS011;40342;52.998;5.862;2022-12-18T15:12:47;10.15;;;9.10;;
54430;SDS011;40342;52.998;5.862;2022-12-18T15:20:32;9.80;;;7.28;;
54430;SDS011;40342;52.998;5.862;2022-12-18T15:23:22;7.63;;;5.72;;
54430;SDS011;40342;52.998;5.862;2022-12-18T15:26:00;6.88;;;5.50;;
54430;SDS011;40342;52.998;5.862;2022-12-18T15:28:39;6.30;;;5.63;;
54430;SDS011;40342;52.998;5.862;2022-12-18T15:33:39;6.93;;;5.57;;
54430;SDS011;40342;52.998;5.862;2022-12-18T15:36:13;7.63;;;5.35;;
54430;SDS011;40342;52.998;5.862;2022-12-18T15:38:40;7.22;;;5.63;;
54430;SDS011;40342;52.998;5.862;2022-12-18T15:41:17;8.38;;;5.55;;
54430;SDS011;40342;52.998;5.862;2022-12-18T15:43:46;6.32;;;5.35;;
54430;SDS011;40342;52.998;5.862;2022-12-18T15:46:15;7.22;;;5.97;;
54430;SDS011;40342;52.998;5.862;2022-12-18T15:48:42;7.43;;;5.63;;
54430;SDS011;40342;52.998;5.862;2022-12-18T15:51:16;7.70;;;5.25;;
54430;SDS011;40342;52.998;5.862;2022-12-18T15:53:51;9.20;;;6.30;;
54430;SDS011;40342;52.998;5.862;2022-12-18T15:56:23;8.35;;;5.43;;
54430;SDS011;40342;52.998;5.862;2022-12-18T15:59:11;6.43;;;5.28;;
54430;SDS011;40342;52.998;5.862;2022-12-18T16:01:42;7.25;;;5.70;;
54430;SDS011;40342;52.998;5.862;2022-12-18T16:04:11;8.93;;;6.75;;
54430;SDS011;40342;52.998;5.862;2022-12-18T16:06:38;8.75;;;6.25;;
54430;SDS011;40342;52.998;5.862;2022-12-18T16:09:04;7.72;;;5.82;;
54430;SDS011;40342;52.998;5.862;2022-12-18T16:11:30;14.75;;;10.75;;
54430;SDS011;40342;52.998;5.862;2022-12-18T16:16:54;7.93;;;6.45;;
54430;SDS011;40342;52.998;5.862;2022-12-18T16:19:22;8.05;;;6.85;;
54430;SDS011;40342;52.998;5.862;2022-12-18T16:21:48;8.30;;;7.38;;
54430;SDS011;40342;52.998;5.862;2022-12-18T16:24:19;7.38;;;6.63;;
54430;SDS011;40342;52.998;5.862;2022-12-18T16:26:48;8.30;;;7.10;;
54430;SDS011;40342;52.998;5.862;2022-12-18T16:29:14;8.63;;;6.28;;
54430;SDS011;40342;52.998;5.862;2022-12-18T16:31:39;7.13;;;6.38;;